sensor_id;sensor_type;location;lat;lon;timestamp;pressure;altitude;pressure_sealevel;temperature;humidity
59367;BME280;45163;47.690;11.770;2024-01-15T00:00:19;91914.97;;;-2.53;100.00
59367;BME280;45163;47.690;11.770;2024-01-15T00:02:46;91899.63;;;-2.31;100.00
59367;BME280;45163;47.690;11.770;2024-01-15T00:05:12;91901.81;;;-2.08;100.00
59367;BME280;45163;47.690;11.770;2024-01-15T00:07:38;91905.97;;;-2.00;100.00
59367;BME280;45163;47.690;11.770;2024-01-15T00:10:05;91901.41;;;-2.03;100.00
59367;BME280;45163;47.690;11.770;2024-01-15T00:12:31;91914.81;;;-2.14;100.00
59367;BME280;45163;47.690;11.770;2024-01-15T00:14:57;91907.97;;;-2.22;100.00
59367;BME280;45163;47.690;11.770;2024-01-15T00:17:23;91897.38;;;-2.40;100.00
59367;BME280;45163;47.690;11.770;2024-01-15T00:19:49;91882.47;;;-2.37;100.00
59367;BME280;45163;47.690;11.770;2024-01-15T00:22:15;91885.16;;;-2.41;100.00
59367;BME280;45163;47.690;11.770;2024-01-15T00:24:41;91888.88;;;-2.17;100.00
59367;BME280;45163;47.690;11.770;2024-01-15T00:27:07;91894.09;;;-1.92;100.00
59367;BME280;45163;47.690;11.770;2024-01-15T00:29:33;91884.47;;;-1.79;100.00
59367;BME280;45163;47.690;11.770;2024-01-15T00:31:59;91893.59;;;-1.72;100.00
59367;BME280;45163;47.690;11.770;2024-01-15T00:34:25;91885.16;;;-1.67;100.00
59367;BME280;45163;47.690;11.770;2024-01-15T00:36:51;91890.91;;;-1.72;100.00
59367;BME280;45163;47.690;11.770;2024-01-15T00:39:17;91903.94;;;-1.78;100.00
59367;BME280;45163;47.690;11.770;2024-01-15T00:41:43;91897.47;;;-1.81;100.00
59367;BME280;45163;47.690;11.770;2024-01-15T00:44:09;91895.59;;;-1.87;100.00
59367;BME280;45163;47.690;11.770;2024-01-15T00:46:43;91897.84;;;-1.79;100.00
59367;BME280;45163;47.690;11.770;2024-01-15T00:49:10;91894.75;;;-1.77;100.00
59367;BME280;45163;47.690;11.770;2024-01-15T00:51:37;91902.78;;;-1.73;100.00
59367;BME280;45163;47.690;11.770;2024-01-15T00:54:03;91895.09;;;-1.71;100.00
59367;BME280;45163;47.690;11.770;2024-01-15T00:56:29;91895.06;;;-1.64;100.00
59367;BME280;45163;47.690;11.770;2024-01-15T00:58:55;91892.66;;;-1.48;100.00
59367;BME280;45163;47.690;11.770;2024-01-15T01:01:21;91879.34;;;-1.07;100.00
59367;BME280;45163;47.690;11.770;2024-01-15T01:03:47;91883.03;;;-0.93;100.00
59367;BME280;45163;47.690;11.770;2024-01-15T01:06:13;91882.13;;;-0.42;100.00
59367;BME280;45163;47.690;11.770;2024-01-15T01:08:39;91888.88;;;-0.30;100.00
59367;BME280;45163;47.690;11.770;2024-01-15T01:11:05;91890.47;;;-0.02;100.00
59367;BME280;45163;47.690;11.770;2024-01-15T01:13:32;91897.94;;;0.14;100.00
59367;BME280;45163;47.690;11.770;2024-01-15T01:15:58;91893.66;;;0.20;100.00
59367;BME280;45163;47.690;11.770;2024-01-15T01:18:39;91884.25;;;0.35;100.00
59367;BME280;45163;47.690;11.770;2024-01-15T01:21:05;91883.28;;;0.49;100.00
59367;BME280;45163;47.690;11.770;2024-01-15T01:23:31;91892.97;;;0.43;100.00
59367;BME280;45163;47.690;11.770;2024-01-15T01:25:57;91893.16;;;0.56;100.00
59367;BME280;45163;47.690;11.770;2024-01-15T01:28:35;91889.16;;;0.40;100.00
59367;BME280;45163;47.690;11.770;2024-01-15T01:31:01;91892.22;;;0.42;100.00
59367;BME280;45163;47.690;11.770;2024-01-15T01:33:27;91898.84;;;0.34;100.00
59367;BME280;45163;47.690;11.770;2024-01-15T01:35:53;91908.75;;;0.37;100.00
59367;BME280;45163;47.690;11.770;2024-01-15T01:38:19;91895.19;;;0.48;100.00
59367;BME280;45163;47.690;11.770;2024-01-15T01:40:45;91887.19;;;0.44;100.00
59367;BME280;45163;47.690;11.770;2024-01-15T01:43:11;91914.53;;;0.36;100.00
59367;BME280;45163;47.690;11.770;2024-01-15T01:45:37;91913.22;;;0.47;100.00
59367;BME280;45163;47.690;11.770;2024-01-15T01:48:04;91902.09;;;0.45;100.00
59367;BME280;45163;47.690;11.770;2024-01-15T01:50:31;91918.69;;;0.40;100.00
59367;BME280;45163;47.690;11.770;2024-01-15T01:52:57;91911.00;;;0.42;100.00
59367;BME280;45163;47.690;11.770;2024-01-15T01:55:26;91908.31;;;0.42;100.00
59367;BME280;45163;47.690;11.770;2024-01-15T01:57:53;91897.25;;;0.37;100.00
59367;BME280;45163;47.690;11.770;2024-01-15T02:00:19;91904.88;;;0.42;100.00
59367;BME280;45163;47.690;11.770;2024-01-15T02:02:45;91907.13;;;0.43;100.00
59367;BME280;45163;47.690;11.770;2024-01-15T02:05:12;91901.09;;;0.36;100.00
59367;BME280;45163;47.690;11.770;2024-01-15T02:07:40;91901.34;;;0.45;100.00
59367;BME280;45163;47.690;11.770;2024-01-15T02:10:07;91898.78;;;0.38;100.00
59367;BME280;45163;47.690;11.770;2024-01-15T02:12:33;91895.75;;;0.36;100.00
59367;BME280;45163;47.690;11.770;2024-01-15T02:14:59;91895.31;;;0.37;100.00
59367;BME280;45163;47.690;11.770;2024-01-15T02:17:25;91898.28;;;0.16;100.00
59367;BME280;45163;47.690;11.770;2024-01-15T02:19:51;91897.78;;;0.24;100.00
59367;BME280;45163;47.690;11.770;2024-01-15T02:22:17;91884.13;;;0.15;100.00
59367;BME280;45163;47.690;11.770;2024-01-15T02:24:43;91898.00;;;0.10;100.00
59367;BME280;45163;47.690;11.770;2024-01-15T02:27:09;91889.34;;;-0.05;100.00
59367;BME280;45163;47.690;11.770;2024-01-15T02:29:35;91889.00;;;-0.07;100.00
59367;BME280;45163;47.690;11.770;2024-01-15T02:32:05;91909.44;;;-0.16;100.00
59367;BME280;45163;47.690;11.770;2024-01-15T02:34:32;91903.97;;;-0.09;100.00
59367;BME280;45163;47.690;11.770;2024-01-15T02:36:58;91898.41;;;-0.26;100.00
59367;BME280;45163;47.690;11.770;2024-01-15T02:39:24;91922.53;;;-0.26;100.00
59367;BME280;45163;47.690;11.770;2024-01-15T02:41:50;91907.19;;;-0.21;100.00
59367;BME280;45163;47.690;11.770;2024-01-15T02:44:16;91917.38;;;-0.43;100.00
59367;BME280;45163;47.690;11.770;2024-01-15T02:46:42;91928.00;;;-0.33;100.00
59367;BME280;45163;47.690;11.770;2024-01-15T02:49:08;91928.88;;;-0.46;100.00
59367;BME280;45163;47.690;11.770;2024-01-15T02:51:34;91939.69;;;-0.54;100.00
59367;BME280;45163;47.690;11.770;2024-01-15T02:54:00;91944.66;;;-0.52;100.00
59367;BME280;45163;47.690;11.770;2024-01-15T02:56:26;91940.34;;;-0.42;100.00
59367;BME280;45163;47.690;11.770;2024-01-15T02:58:52;91949.47;;;-0.36;100.00
59367;BME280;45163;47.690;11.770;2024-01-15T03:01:19;91945.69;;;-0.42;100.00
59367;BME280;45163;47.690;11.770;2024-01-15T03:03:46;91946.56;;;-0.53;100.00
59367;BME280;45163;47.690;11.770;2024-01-15T03:06:12;91939.53;;;-0.77;100.00
59367;BME280;45163;47.690;11.770;2024-01-15T03:08:38;91945.41;;;-0.93;100.00
59367;BME280;45163;47.690;11.770;2024-01-15T03:11:03;91949.38;;;-1.12;100.00
59367;BME280;45163;47.690;11.770;2024-01-15T03:13:29;91946.78;;;-1.22;100.00
59367;BME280;45163;47.690;11.770;2024-01-15T03:15:55;91946.47;;;-1.35;100.00
59367;BME280;45163;47.690;11.770;2024-01-15T03:18:21;91956.47;;;-1.43;100.00
59367;BME280;45163;47.690;11.770;2024-01-15T03:20:47;91958.03;;;-1.45;100.00
59367;BME280;45163;47.690;11.770;2024-01-15T03:23:13;91954.34;;;-1.73;100.00
59367;BME280;45163;47.690;11.770;2024-01-15T03:25:39;91966.22;;;-1.81;100.00
59367;BME280;45163;47.690;11.770;2024-01-15T03:28:05;91970.84;;;-1.89;100.00
59367;BME280;45163;47.690;11.770;2024-01-15T03:30:31;91967.84;;;-1.98;100.00
59367;BME280;45163;47.690;11.770;2024-01-15T03:32:57;91970.13;;;-1.96;100.00
59367;BME280;45163;47.690;11.770;2024-01-15T03:35:23;91960.59;;;-2.01;100.00
59367;BME280;45163;47.690;11.770;2024-01-15T03:37:49;91971.25;;;-1.97;100.00
59367;BME280;45163;47.690;11.770;2024-01-15T03:40:15;91969.78;;;-2.09;100.00
59367;BME280;45163;47.690;11.770;2024-01-15T03:42:41;91971.34;;;-2.15;100.00
59367;BME280;45163;47.690;11.770;2024-01-15T03:45:07;91983.97;;;-2.23;100.00
59367;BME280;45163;47.690;11.770;2024-01-15T03:47:33;91979.00;;;-2.24;100.00
59367;BME280;45163;47.690;11.770;2024-01-15T03:49:59;91983.56;;;-2.18;100.00
59367;BME280;45163;47.690;11.770;2024-01-15T03:52:25;91988.53;;;-2.16;100.00
59367;BME280;45163;47.690;11.770;2024-01-15T03:54:51;92005.69;;;-2.17;100.00
59367;BME280;45163;47.690;11.770;2024-01-15T03:57:17;91995.00;;;-2.17;100.00
59367;BME280;45163;47.690;11.770;2024-01-15T03:59:43;92008.78;;;-2.26;100.00
59367;BME280;45163;47.690;11.770;2024-01-15T04:02:10;92007.25;;;-2.31;100.00
59367;BME280;45163;47.690;11.770;2024-01-15T04:04:36;92009.16;;;-2.31;100.00
59367;BME280;45163;47.690;11.770;2024-01-15T04:07:02;92011.09;;;-2.32;100.00
59367;BME280;45163;47.690;11.770;2024-01-15T04:09:28;92016.06;;;-2.37;100.00
59367;BME280;45163;47.690;11.770;2024-01-15T04:11:54;92007.28;;;-2.41;100.00
59367;BME280;45163;47.690;11.770;2024-01-15T04:14:20;92009.19;;;-2.38;100.00
59367;BME280;45163;47.690;11.770;2024-01-15T04:16:46;92025.25;;;-2.42;100.00
59367;BME280;45163;47.690;11.770;2024-01-15T04:19:12;92015.31;;;-2.41;100.00
59367;BME280;45163;47.690;11.770;2024-01-15T04:21:37;92018.75;;;-2.52;100.00
59367;BME280;45163;47.690;11.770;2024-01-15T04:24:04;92017.97;;;-2.45;100.00
59367;BME280;45163;47.690;11.770;2024-01-15T04:26:30;92007.69;;;-2.46;100.00
59367;BME280;45163;47.690;11.770;2024-01-15T04:28:56;92006.19;;;-2.55;100.00
59367;BME280;45163;47.690;11.770;2024-01-15T04:31:23;92024.88;;;-2.55;100.00
59367;BME280;45163;47.690;11.770;2024-01-15T04:33:49;92019.50;;;-2.51;100.00
59367;BME280;45163;47.690;11.770;2024-01-15T04:36:15;92014.91;;;-2.47;100.00
59367;BME280;45163;47.690;11.770;2024-01-15T04:38:41;92015.31;;;-2.41;100.00
59367;BME280;45163;47.690;11.770;2024-01-15T04:41:13;92016.81;;;-2.40;100.00
59367;BME280;45163;47.690;11.770;2024-01-15T04:43:39;92020.25;;;-2.36;100.00
59367;BME280;45163;47.690;11.770;2024-01-15T04:46:06;92013.00;;;-2.36;100.00
59367;BME280;45163;47.690;11.770;2024-01-15T04:48:33;92017.19;;;-2.38;100.00
59367;BME280;45163;47.690;11.770;2024-01-15T04:50:59;92017.22;;;-2.45;100.00
59367;BME280;45163;47.690;11.770;2024-01-15T04:53:25;92011.88;;;-2.49;100.00
59367;BME280;45163;47.690;11.770;2024-01-15T04:55:51;92008.44;;;-2.46;100.00
59367;BME280;45163;47.690;11.770;2024-01-15T04:58:17;92016.47;;;-2.46;100.00
59367;BME280;45163;47.690;11.770;2024-01-15T05:00:43;92028.28;;;-2.36;100.00
59367;BME280;45163;47.690;11.770;2024-01-15T05:03:09;92019.88;;;-2.35;100.00
59367;BME280;45163;47.690;11.770;2024-01-15T05:05:35;92018.72;;;-2.30;100.00
59367;BME280;45163;47.690;11.770;2024-01-15T05:08:01;92026.38;;;-2.36;100.00
59367;BME280;45163;47.690;11.770;2024-01-15T05:10:28;92035.16;;;-2.42;100.00
59367;BME280;45163;47.690;11.770;2024-01-15T05:12:54;92026.41;;;-2.46;100.00
59367;BME280;45163;47.690;11.770;2024-01-15T05:15:19;92032.09;;;-2.48;100.00
59367;BME280;45163;47.690;11.770;2024-01-15T05:17:45;92027.91;;;-2.56;100.00
59367;BME280;45163;47.690;11.770;2024-01-15T05:20:11;92025.59;;;-2.40;100.00
59367;BME280;45163;47.690;11.770;2024-01-15T05:22:39;92022.19;;;-2.47;100.00
59367;BME280;45163;47.690;11.770;2024-01-15T05:25:05;92030.59;;;-2.45;100.00
59367;BME280;45163;47.690;11.770;2024-01-15T05:27:31;92022.94;;;-2.40;100.00
59367;BME280;45163;47.690;11.770;2024-01-15T05:29:57;92014.53;;;-2.38;100.00
59367;BME280;45163;47.690;11.770;2024-01-15T05:32:23;92016.47;;;-2.46;100.00
59367;BME280;45163;47.690;11.770;2024-01-15T05:34:49;92009.56;;;-2.33;100.00
59367;BME280;45163;47.690;11.770;2024-01-15T05:37:15;92000.78;;;-2.40;100.00
59367;BME280;45163;47.690;11.770;2024-01-15T05:39:41;91994.34;;;-2.61;100.00
59367;BME280;45163;47.690;11.770;2024-01-15T05:42:07;92010.00;;;-2.70;100.00
59367;BME280;45163;47.690;11.770;2024-01-15T05:44:33;92010.38;;;-2.68;100.00
59367;BME280;45163;47.690;11.770;2024-01-15T05:46:59;92018.38;;;-2.54;100.00
59367;BME280;45163;47.690;11.770;2024-01-15T05:49:25;92009.59;;;-2.58;100.00
59367;BME280;45163;47.690;11.770;2024-01-15T05:52:07;92006.56;;;-2.67;100.00
59367;BME280;45163;47.690;11.770;2024-01-15T05:54:33;92007.69;;;-2.64;100.00
59367;BME280;45163;47.690;11.770;2024-01-15T05:56:59;92003.50;;;-2.62;100.00
59367;BME280;45163;47.690;11.770;2024-01-15T05:59:25;92003.13;;;-2.71;100.00
59367;BME280;45163;47.690;11.770;2024-01-15T06:01:51;92011.16;;;-2.67;100.00
59367;BME280;45163;47.690;11.770;2024-01-15T06:04:17;92010.38;;;-2.61;100.00
59367;BME280;45163;47.690;11.770;2024-01-15T06:06:43;92010.38;;;-2.61;100.00
59367;BME280;45163;47.690;11.770;2024-01-15T06:09:09;92018.78;;;-2.59;100.00
59367;BME280;45163;47.690;11.770;2024-01-15T06:11:35;92012.28;;;-2.51;100.00
59367;BME280;45163;47.690;11.770;2024-01-15T06:14:01;91999.69;;;-2.61;100.00
59367;BME280;45163;47.690;11.770;2024-01-15T06:16:28;92003.88;;;-2.60;100.00
59367;BME280;45163;47.690;11.770;2024-01-15T06:18:54;92003.50;;;-2.65;100.00
59367;BME280;45163;47.690;11.770;2024-01-15T06:21:20;91996.66;;;-2.70;100.00
59367;BME280;45163;47.690;11.770;2024-01-15T06:23:46;92006.56;;;-2.63;100.00
59367;BME280;45163;47.690;11.770;2024-01-15T06:26:12;92016.09;;;-2.62;100.00
59367;BME280;45163;47.690;11.770;2024-01-15T06:28:38;92020.69;;;-2.63;100.00
59367;BME280;45163;47.690;11.770;2024-01-15T06:31:04;92013.78;;;-2.53;100.00
59367;BME280;45163;47.690;11.770;2024-01-15T06:33:31;92016.47;;;-2.57;100.00
59367;BME280;45163;47.690;11.770;2024-01-15T06:35:57;92008.84;;;-2.55;100.00
59367;BME280;45163;47.690;11.770;2024-01-15T06:38:23;92006.19;;;-2.62;100.00
59367;BME280;45163;47.690;11.770;2024-01-15T06:40:51;92004.63;;;-2.59;100.00
59367;BME280;45163;47.690;11.770;2024-01-15T06:43:17;91999.28;;;-2.59;100.00
59367;BME280;45163;47.690;11.770;2024-01-15T06:45:44;92005.38;;;-2.52;100.00
59367;BME280;45163;47.690;11.770;2024-01-15T06:48:10;92012.66;;;-2.48;100.00
59367;BME280;45163;47.690;11.770;2024-01-15T06:50:40;92001.19;;;-2.53;100.00
59367;BME280;45163;47.690;11.770;2024-01-15T06:53:06;92004.63;;;-2.48;100.00
59367;BME280;45163;47.690;11.770;2024-01-15T06:55:32;92005.78;;;-2.53;100.00
59367;BME280;45163;47.690;11.770;2024-01-15T06:57:58;92002.72;;;-2.52;100.00
59367;BME280;45163;47.690;11.770;2024-01-15T07:00:24;92010.38;;;-2.57;100.00
59367;BME280;45163;47.690;11.770;2024-01-15T07:02:50;92005.41;;;-2.59;100.00
59367;BME280;45163;47.690;11.770;2024-01-15T07:05:16;92010.38;;;-2.57;100.00
59367;BME280;45163;47.690;11.770;2024-01-15T07:07:45;92006.19;;;-2.69;100.00
59367;BME280;45163;47.690;11.770;2024-01-15T07:10:11;91998.94;;;-2.65;100.00
59367;BME280;45163;47.690;11.770;2024-01-15T07:12:37;91992.06;;;-2.62;100.00
59367;BME280;45163;47.690;11.770;2024-01-15T07:15:04;91995.13;;;-2.71;100.00
59367;BME280;45163;47.690;11.770;2024-01-15T07:17:32;91997.41;;;-2.62;100.00
59367;BME280;45163;47.690;11.770;2024-01-15T07:19:58;91991.66;;;-2.64;100.00
59367;BME280;45163;47.690;11.770;2024-01-15T07:22:24;91984.41;;;-2.60;100.00
59367;BME280;45163;47.690;11.770;2024-01-15T07:24:50;91993.94;;;-2.52;100.00
59367;BME280;45163;47.690;11.770;2024-01-15T07:27:16;91980.59;;;-2.56;100.00
59367;BME280;45163;47.690;11.770;2024-01-15T07:29:42;91981.75;;;-2.53;100.00
59367;BME280;45163;47.690;11.770;2024-01-15T07:32:09;91984.41;;;-2.53;100.00
59367;BME280;45163;47.690;11.770;2024-01-15T07:34:35;91976.41;;;-2.46;100.00
59367;BME280;45163;47.690;11.770;2024-01-15T07:37:01;91978.66;;;-2.41;100.00
59367;BME280;45163;47.690;11.770;2024-01-15T07:39:27;91985.16;;;-2.45;100.00
59367;BME280;45163;47.690;11.770;2024-01-15T07:41:54;91967.97;;;-2.41;100.00
59367;BME280;45163;47.690;11.770;2024-01-15T07:44:20;91970.25;;;-2.39;100.00
59367;BME280;45163;47.690;11.770;2024-01-15T07:46:47;91972.91;;;-2.36;100.00
59367;BME280;45163;47.690;11.770;2024-01-15T07:49:13;91972.16;;;-2.29;100.00
59367;BME280;45163;47.690;11.770;2024-01-15T07:51:39;91982.44;;;-2.28;100.00
59367;BME280;45163;47.690;11.770;2024-01-15T07:54:09;91976.00;;;-2.37;100.00
59367;BME280;45163;47.690;11.770;2024-01-15T07:56:56;91981.31;;;-2.34;100.00
59367;BME280;45163;47.690;11.770;2024-01-15T07:59:23;91966.44;;;-2.38;100.00
59367;BME280;45163;47.690;11.770;2024-01-15T08:01:50;91972.94;;;-2.43;100.00
59367;BME280;45163;47.690;11.770;2024-01-15T08:04:16;91964.91;;;-2.36;100.00
59367;BME280;45163;47.690;11.770;2024-01-15T08:06:42;91957.69;;;-2.46;100.00
59367;BME280;45163;47.690;11.770;2024-01-15T08:09:08;91954.22;;;-2.43;100.00
59367;BME280;45163;47.690;11.770;2024-01-15T08:11:34;91968.75;;;-2.40;100.00
59367;BME280;45163;47.690;11.770;2024-01-15T08:14:01;91969.88;;;-2.38;100.00
59367;BME280;45163;47.690;11.770;2024-01-15T08:16:27;91972.94;;;-2.43;100.00
59367;BME280;45163;47.690;11.770;2024-01-15T08:18:53;91963.00;;;-2.35;100.00
59367;BME280;45163;47.690;11.770;2024-01-15T08:21:19;91957.69;;;-2.42;100.00
59367;BME280;45163;47.690;11.770;2024-01-15T08:23:45;91951.19;;;-2.38;100.00
59367;BME280;45163;47.690;11.770;2024-01-15T08:26:11;91954.63;;;-2.37;100.00
59367;BME280;45163;47.690;11.770;2024-01-15T08:28:37;91942.75;;;-2.26;100.00
59367;BME280;45163;47.690;11.770;2024-01-15T08:31:03;91946.19;;;-2.32;100.00
59367;BME280;45163;47.690;11.770;2024-01-15T08:33:29;91952.66;;;-2.22;100.00
59367;BME280;45163;47.690;11.770;2024-01-15T08:35:55;91959.50;;;-2.18;100.00
59367;BME280;45163;47.690;11.770;2024-01-15T08:38:21;91948.78;;;-2.07;100.00
59367;BME280;45163;47.690;11.770;2024-01-15T08:40:49;91942.28;;;-2.10;100.00
59367;BME280;45163;47.690;11.770;2024-01-15T08:43:15;91961.41;;;-2.11;100.00
59367;BME280;45163;47.690;11.770;2024-01-15T08:45:42;91954.91;;;-2.14;100.00
59367;BME280;45163;47.690;11.770;2024-01-15T08:48:08;91952.19;;;-1.99;100.00
59367;BME280;45163;47.690;11.770;2024-01-15T08:50:34;91951.03;;;-1.95;100.00
59367;BME280;45163;47.690;11.770;2024-01-15T08:52:59;91948.38;;;-2.09;100.00
59367;BME280;45163;47.690;11.770;2024-01-15T08:55:25;91956.78;;;-2.07;100.00
59367;BME280;45163;47.690;11.770;2024-01-15T08:57:51;91962.16;;;-2.14;100.00
59367;BME280;45163;47.690;11.770;2024-01-15T09:00:17;91969.41;;;-2.11;100.00
59367;BME280;45163;47.690;11.770;2024-01-15T09:02:44;91954.06;;;-1.93;100.00
59367;BME280;45163;47.690;11.770;2024-01-15T09:05:10;91952.50;;;-1.87;100.00
59367;BME280;45163;47.690;11.770;2024-01-15T09:07:36;91965.88;;;-1.87;100.00
59367;BME280;45163;47.690;11.770;2024-01-15T09:10:02;91955.63;;;-1.99;100.00
59367;BME280;45163;47.690;11.770;2024-01-15T09:12:28;91965.16;;;-1.98;100.00
59367;BME280;45163;47.690;11.770;2024-01-15T09:14:55;91960.53;;;-1.83;100.00
59367;BME280;45163;47.690;11.770;2024-01-15T09:17:22;91958.63;;;-1.90;100.00
59367;BME280;45163;47.690;11.770;2024-01-15T09:19:49;91963.09;;;-1.65;100.00
59367;BME280;45163;47.690;11.770;2024-01-15T09:22:15;91955.06;;;-1.62;100.00
59367;BME280;45163;47.690;11.770;2024-01-15T09:24:45;91961.25;;;-1.76;100.00
59367;BME280;45163;47.690;11.770;2024-01-15T09:27:11;91956.25;;;-1.73;100.00
59367;BME280;45163;47.690;11.770;2024-01-15T09:29:37;91950.50;;;-1.72;100.00
59367;BME280;45163;47.690;11.770;2024-01-15T09:32:06;91963.53;;;-1.78;100.00
59367;BME280;45163;47.690;11.770;2024-01-15T09:34:35;91966.88;;;-1.56;100.00
59367;BME280;45163;47.690;11.770;2024-01-15T09:37:02;91958.78;;;-1.45;100.00
59367;BME280;45163;47.690;11.770;2024-01-15T09:39:28;91960.47;;;-1.72;100.00
59367;BME280;45163;47.690;11.770;2024-01-15T09:41:54;91964.25;;;-1.66;100.00
59367;BME280;45163;47.690;11.770;2024-01-15T09:44:21;91966.63;;;-1.79;100.00
59367;BME280;45163;47.690;11.770;2024-01-15T09:46:48;91961.63;;;-1.81;100.00
59367;BME280;45163;47.690;11.770;2024-01-15T09:49:17;91953.19;;;-1.72;100.00
59367;BME280;45163;47.690;11.770;2024-01-15T09:51:44;91963.84;;;-1.65;100.00
59367;BME280;45163;47.690;11.770;2024-01-15T09:54:10;91957.69;;;-1.55;100.00
59367;BME280;45163;47.690;11.770;2024-01-15T09:56:39;91965.66;;;-1.44;100.00
59367;BME280;45163;47.690;11.770;2024-01-15T09:59:05;91959.13;;;-1.39;100.00
59367;BME280;45163;47.690;11.770;2024-01-15T10:01:32;91952.31;;;-1.51;100.00
59367;BME280;45163;47.690;11.770;2024-01-15T10:04:01;91958.47;;;-1.58;100.00
59367;BME280;45163;47.690;11.770;2024-01-15T10:06:27;91959.34;;;-1.75;100.00
59367;BME280;45163;47.690;11.770;2024-01-15T10:08:56;91960.84;;;-1.70;100.00
59367;BME280;45163;47.690;11.770;2024-01-15T10:11:24;91948.16;;;-1.59;100.00
59367;BME280;45163;47.690;11.770;2024-01-15T10:13:50;91945.84;;;-1.54;100.00
59367;BME280;45163;47.690;11.770;2024-01-15T10:16:19;91945.84;;;-1.57;100.00
59367;BME280;45163;47.690;11.770;2024-01-15T10:18:45;91937.78;;;-1.50;100.00
59367;BME280;45163;47.690;11.770;2024-01-15T10:21:11;91945.13;;;-1.61;100.00
59367;BME280;45163;47.690;11.770;2024-01-15T10:23:37;91933.84;;;-1.31;100.00
59367;BME280;45163;47.690;11.770;2024-01-15T10:26:04;91925.09;;;-1.39;100.00
59367;BME280;45163;47.690;11.770;2024-01-15T10:28:30;91923.84;;;-1.23;100.00
59367;BME280;45163;47.690;11.770;2024-01-15T10:30:58;91916.13;;;-1.18;100.00
59367;BME280;45163;47.690;11.770;2024-01-15T10:33:27;91921.47;;;-1.14;100.00
59367;BME280;45163;47.690;11.770;2024-01-15T10:35:57;91913.72;;;-1.54;100.00
59367;BME280;45163;47.690;11.770;2024-01-15T10:38:24;91903.47;;;-1.62;100.00
59367;BME280;45163;47.690;11.770;2024-01-15T10:40:51;91903.06;;;-1.57;100.00
59367;BME280;45163;47.690;11.770;2024-01-15T10:43:18;91914.03;;;-1.41;100.00
59367;BME280;45163;47.690;11.770;2024-01-15T10:45:48;91893.53;;;-1.62;100.00
59367;BME280;45163;47.690;11.770;2024-01-15T10:48:16;91916.84;;;-1.62;100.00
59367;BME280;45163;47.690;11.770;2024-01-15T10:50:47;91910.34;;;-1.65;100.00
59367;BME280;45163;47.690;11.770;2024-01-15T10:53:16;91910.31;;;-1.58;100.00
59367;BME280;45163;47.690;11.770;2024-01-15T10:55:43;91900.00;;;-1.59;100.00
59367;BME280;45163;47.690;11.770;2024-01-15T10:58:09;91902.66;;;-1.56;100.00
59367;BME280;45163;47.690;11.770;2024-01-15T11:00:36;91898.78;;;-1.47;100.00
59367;BME280;45163;47.690;11.770;2024-01-15T11:03:04;91898.03;;;-1.52;100.00
59367;BME280;45163;47.690;11.770;2024-01-15T11:05:44;91898.34;;;-1.42;100.00
59367;BME280;45163;47.690;11.770;2024-01-15T11:08:10;91899.75;;;-1.23;100.00
59367;BME280;45163;47.690;11.770;2024-01-15T11:13:13;91898.56;;;-1.19;100.00
59367;BME280;45163;47.690;11.770;2024-01-15T11:18:42;91879.44;;;-0.76;100.00
59367;BME280;45163;47.690;11.770;2024-01-15T11:23:50;91875.88;;;-0.28;100.00
59367;BME280;45163;47.690;11.770;2024-01-15T11:28:59;91878.69;;;-0.08;100.00
59367;BME280;45163;47.690;11.770;2024-01-15T11:31:30;91888.34;;;0.43;100.00
59367;BME280;45163;47.690;11.770;2024-01-15T11:34:15;91872.63;;;0.69;100.00
59367;BME280;45163;47.690;11.770;2024-01-15T11:42:00;91864.03;;;0.00;100.00
59367;BME280;45163;47.690;11.770;2024-01-15T11:44:26;91872.75;;;0.04;100.00
59367;BME280;45163;47.690;11.770;2024-01-15T11:47:09;91874.81;;;-0.04;100.00
59367;BME280;45163;47.690;11.770;2024-01-15T11:49:59;91875.44;;;-0.61;100.00
59367;BME280;45163;47.690;11.770;2024-01-15T11:52:31;91872.41;;;0.02;100.00
59367;BME280;45163;47.690;11.770;2024-01-15T11:57:45;91862.63;;;0.96;100.00
59367;BME280;45163;47.690;11.770;2024-01-15T12:00:12;91858.88;;;-0.18;100.00
59367;BME280;45163;47.690;11.770;2024-01-15T12:02:40;91858.75;;;-0.76;100.00
59367;BME280;45163;47.690;11.770;2024-01-15T12:05:08;91854.91;;;-0.71;100.00
59367;BME280;45163;47.690;11.770;2024-01-15T12:07:34;91850.19;;;-0.97;100.00
59367;BME280;45163;47.690;11.770;2024-01-15T12:10:02;91852.09;;;-0.98;100.00
59367;BME280;45163;47.690;11.770;2024-01-15T12:12:44;91850.31;;;-1.12;100.00
59367;BME280;45163;47.690;11.770;2024-01-15T12:15:14;91846.75;;;-0.98;100.00
59367;BME280;45163;47.690;11.770;2024-01-15T12:17:40;91854.50;;;-1.11;100.00
59367;BME280;45163;47.690;11.770;2024-01-15T12:20:06;91844.81;;;-0.97;100.00
59367;BME280;45163;47.690;11.770;2024-01-15T12:22:32;91844.75;;;-0.90;100.00
59367;BME280;45163;47.690;11.770;2024-01-15T12:24:59;91837.28;;;-0.72;100.00
59367;BME280;45163;47.690;11.770;2024-01-15T12:27:25;91844.19;;;-0.71;100.00
59367;BME280;45163;47.690;11.770;2024-01-15T12:29:53;91836.78;;;-0.60;100.00
59367;BME280;45163;47.690;11.770;2024-01-15T12:32:19;91838.84;;;-0.40;100.00
59367;BME280;45163;47.690;11.770;2024-01-15T12:34:49;91843.81;;;-0.39;100.00
59367;BME280;45163;47.690;11.770;2024-01-15T12:37:15;91837.69;;;-0.39;100.00
59367;BME280;45163;47.690;11.770;2024-01-15T12:39:43;91845.38;;;-0.41;100.00
59367;BME280;45163;47.690;11.770;2024-01-15T12:42:10;91834.97;;;-0.36;100.00
59367;BME280;45163;47.690;11.770;2024-01-15T12:44:36;91842.03;;;-0.18;100.00
59367;BME280;45163;47.690;11.770;2024-01-15T12:47:05;91840.75;;;-0.37;100.00
59367;BME280;45163;47.690;11.770;2024-01-15T12:49:32;91841.28;;;-0.49;100.00
59367;BME280;45163;47.690;11.770;2024-01-15T12:51:59;91846.28;;;-0.55;100.00
59367;BME280;45163;47.690;11.770;2024-01-15T12:54:25;91831.19;;;-0.72;100.00
59367;BME280;45163;47.690;11.770;2024-01-15T12:56:52;91844.84;;;-0.63;100.00